createdAt,value
2019-02-27T00:00:50.055Z,2.63
2019-02-27T00:03:19.995Z,3.34
2019-02-27T00:05:49.480Z,3.30
2019-02-27T00:08:19.024Z,3.10
2019-02-27T00:10:48.616Z,3.02
2019-02-27T00:13:18.339Z,2.96
2019-02-27T00:15:47.860Z,3.00
2019-02-27T00:18:17.347Z,2.86
2019-02-27T00:20:46.881Z,2.72
2019-02-27T00:23:16.373Z,2.77
2019-02-27T00:25:46.728Z,2.93
2019-02-27T00:28:16.269Z,2.82
2019-02-27T00:30:45.777Z,2.85
2019-02-27T00:33:15.277Z,2.80
2019-02-27T00:35:44.861Z,2.83
2019-02-27T00:38:15.136Z,2.88
2019-02-27T00:40:44.729Z,2.80
2019-02-27T00:43:14.220Z,2.80
2019-02-27T00:45:43.713Z,2.80
2019-02-27T00:48:13.248Z,2.87
2019-02-27T00:50:43.402Z,2.85
2019-02-27T00:53:12.914Z,2.94
2019-02-27T00:55:42.403Z,2.97
2019-02-27T00:58:11.929Z,3.01
2019-02-27T01:00:41.472Z,2.99
2019-02-27T01:03:11.885Z,3.00
2019-02-27T01:05:41.732Z,3.07
2019-02-27T01:08:11.280Z,3.05
2019-02-27T01:10:42.824Z,3.03
2019-02-27T01:13:12.049Z,3.03
2019-02-27T01:15:41.804Z,3.04
2019-02-27T01:18:12.844Z,3.08
2019-02-27T01:20:45.681Z,3.38
2019-02-27T01:23:14.815Z,3.17
2019-02-27T01:25:44.317Z,3.42
2019-02-27T01:28:13.830Z,3.15
2019-02-27T01:30:43.387Z,3.05
2019-02-27T01:33:12.924Z,3.00
2019-02-27T01:35:42.503Z,3.06
2019-02-27T01:38:12.022Z,3.01
2019-02-27T01:40:41.524Z,2.97
2019-02-27T01:43:11.526Z,3.01
2019-02-27T01:45:41.017Z,3.02
2019-02-27T01:48:10.547Z,3.61
2019-02-27T01:50:40.042Z,3.47
2019-02-27T01:53:09.561Z,3.13
2019-02-27T01:55:39.700Z,2.96
2019-02-27T01:58:10.211Z,2.87
2019-02-27T02:00:40.170Z,2.78
2019-02-27T02:03:11.188Z,2.74
2019-02-27T02:05:41.162Z,2.69
2019-02-27T02:08:13.475Z,2.64
2019-02-27T02:10:42.722Z,2.76
2019-02-27T02:13:20.629Z,2.66
2019-02-27T02:16:00.922Z,2.63
2019-02-27T02:19:02.255Z,2.61
2019-02-27T02:21:54.254Z,2.53
2019-02-27T02:24:58.345Z,2.47
2019-02-27T02:27:49.530Z,2.38
2019-02-27T02:30:44.335Z,2.27
2019-02-27T02:33:33.510Z,2.04
2019-02-27T02:36:40.014Z,1.93
2019-02-27T02:39:22.717Z,1.86
2019-02-27T02:42:02.322Z,1.69
2019-02-27T02:45:09.479Z,1.64
2019-02-27T02:47:58.316Z,1.50
2019-02-27T02:50:54.302Z,1.38
2019-02-27T02:54:04.879Z,1.26
2019-02-27T02:57:00.561Z,1.16
2019-02-27T02:59:52.341Z,1.29
2019-02-27T03:02:51.836Z,0.97
2019-02-27T03:06:10.408Z,0.85
2019-02-27T03:09:02.148Z,0.85
2019-02-27T03:11:54.580Z,1.03
2019-02-27T03:15:16.342Z,0.87
2019-02-27T03:18:02.222Z,0.60
2019-02-27T03:20:45.328Z,0.44
2019-02-27T03:23:52.222Z,0.28
2019-02-27T03:26:30.709Z,0.19
2019-02-27T03:29:19.770Z,0.10
2019-02-27T03:32:11.907Z,0.04
2019-02-27T03:35:01.000Z,-0.02
2019-02-27T03:37:40.941Z,-0.06
2019-02-27T03:40:48.135Z,-0.10
2019-02-27T03:43:32.599Z,-0.11
2019-02-27T03:46:25.588Z,-0.18
2019-02-27T03:49:25.295Z,-0.25
2019-02-27T03:52:27.619Z,-0.26
2019-02-27T03:55:48.029Z,-0.05
2019-02-27T03:58:51.868Z,-0.15
2019-02-27T04:01:42.380Z,-0.23
2019-02-27T04:04:46.403Z,-0.35
2019-02-27T04:07:41.229Z,-0.37
2019-02-27T04:10:10.763Z,-0.43
2019-02-27T04:12:40.302Z,-0.52
2019-02-27T04:15:10.383Z,-0.59
2019-02-27T04:17:38.275Z,-0.61
2019-02-27T04:20:07.936Z,-0.36
2019-02-27T04:22:37.689Z,-0.36
2019-02-27T04:25:09.097Z,-0.50
2019-02-27T04:27:39.093Z,-0.66
2019-02-27T04:30:14.746Z,-0.70
2019-02-27T04:32:47.734Z,-0.73
2019-02-27T04:35:12.896Z,-0.80
2019-02-27T04:37:42.418Z,-0.81
2019-02-27T04:40:11.989Z,-0.86
2019-02-27T04:42:42.109Z,-0.75
2019-02-27T04:45:13.056Z,-0.85
2019-02-27T04:47:42.652Z,-0.90
2019-02-27T04:50:12.214Z,-0.95
2019-02-27T04:52:41.769Z,-1.01
2019-02-27T04:55:13.047Z,-1.07
2019-02-27T04:57:42.492Z,-1.07
2019-02-27T05:00:12.427Z,-1.10
2019-02-27T05:02:41.956Z,-0.90
2019-02-27T05:05:11.469Z,-0.70
2019-02-27T05:07:40.985Z,-0.58
2019-02-27T05:10:11.432Z,-0.77
2019-02-27T05:12:40.945Z,-0.64
2019-02-27T05:15:10.467Z,-0.53
2019-02-27T05:17:39.983Z,-0.69
2019-02-27T05:20:12.460Z,-0.92
2019-02-27T05:22:41.153Z,-0.78
2019-02-27T05:25:12.138Z,-0.88
2019-02-27T05:27:41.881Z,-1.06
2019-02-27T05:30:13.306Z,-1.07
2019-02-27T05:32:42.812Z,-1.15
2019-02-27T05:35:12.437Z,-1.24
2019-02-27T05:37:42.380Z,-1.27
2019-02-27T05:40:12.114Z,-1.33
2019-02-27T05:42:41.634Z,-1.34
2019-02-27T05:45:12.936Z,-1.36
2019-02-27T05:47:45.824Z,-1.35
2019-02-27T05:50:14.052Z,-1.34
2019-02-27T05:52:48.370Z,-1.27
2019-02-27T05:55:14.838Z,-1.34
2019-02-27T05:57:44.373Z,-1.38
2019-02-27T06:00:19.580Z,-1.35
2019-02-27T06:02:49.115Z,-1.35
2019-02-27T06:05:18.607Z,-1.37
2019-02-27T06:07:48.138Z,-1.30
2019-02-27T06:10:20.116Z,-1.25
2019-02-27T06:12:49.768Z,-1.20
2019-02-27T06:15:19.776Z,-1.16
2019-02-27T06:17:49.885Z,-1.06
2019-02-27T06:20:19.527Z,-0.93
2019-02-27T06:22:49.052Z,-0.83
2019-02-27T06:25:23.209Z,-0.79
2019-02-27T06:27:52.540Z,-0.73
2019-02-27T06:30:22.548Z,-0.71
2019-02-27T06:32:52.098Z,-0.61
2019-02-27T06:35:21.710Z,-0.37
2019-02-27T06:37:51.469Z,-0.28
2019-02-27T06:40:21.084Z,-0.27
2019-02-27T06:42:53.414Z,-0.18
2019-02-27T06:45:21.845Z,0.78
2019-02-27T06:47:51.355Z,4.29
2019-02-27T06:50:25.166Z,6.78
2019-02-27T06:52:52.101Z,8.87
2019-02-27T06:55:21.606Z,10.53
2019-02-27T06:57:51.173Z,10.78
2019-02-27T07:00:25.131Z,11.15
2019-02-27T07:02:55.504Z,11.42
2019-02-27T07:05:26.556Z,11.36
2019-02-27T07:07:56.042Z,11.58
2019-02-27T07:10:25.582Z,12.02
2019-02-27T07:12:55.419Z,12.31
2019-02-27T07:15:25.177Z,13.27
2019-02-27T07:17:55.989Z,13.20
2019-02-27T07:20:25.546Z,13.72
2019-02-27T07:22:55.060Z,14.37
2019-02-27T07:25:24.685Z,12.87
2019-02-27T07:27:54.166Z,10.31
2019-02-27T07:30:24.814Z,8.16
2019-02-27T07:32:54.309Z,6.45
2019-02-27T07:35:26.382Z,5.53
2019-02-27T07:37:55.057Z,5.45
2019-02-27T07:40:24.567Z,6.84
2019-02-27T07:42:54.057Z,9.52
2019-02-27T07:45:24.207Z,8.19
2019-02-27T07:47:53.687Z,7.77
2019-02-27T07:50:23.434Z,7.83
2019-02-27T07:52:52.973Z,7.56
2019-02-27T07:55:24.358Z,7.67
2019-02-27T07:57:58.506Z,10.59
2019-02-27T08:00:26.402Z,14.48
2019-02-27T08:02:56.068Z,15.96
2019-02-27T08:05:27.897Z,18.40
2019-02-27T08:07:56.843Z,17.61
2019-02-27T08:10:27.083Z,17.97
2019-02-27T08:12:56.838Z,17.95
2019-02-27T08:15:26.443Z,19.10
2019-02-27T08:17:57.937Z,17.80
2019-02-27T08:20:27.256Z,18.78
2019-02-27T08:22:57.805Z,18.87
2019-02-27T08:25:29.067Z,19.33
2019-02-27T08:27:58.571Z,19.67
2019-02-27T08:30:29.987Z,17.99
2019-02-27T08:32:59.478Z,19.78
2019-02-27T08:35:29.013Z,19.58
2019-02-27T08:38:02.473Z,19.91
2019-02-27T08:40:29.797Z,20.22
2019-02-27T08:42:59.292Z,19.75
2019-02-27T08:45:28.807Z,21.10
2019-02-27T08:47:58.327Z,20.28
2019-02-27T08:50:29.168Z,21.24
2019-02-27T08:53:00.201Z,20.29
2019-02-27T08:55:29.729Z,20.26
2019-02-27T08:57:59.204Z,21.86
2019-02-27T09:00:32.022Z,21.07
2019-02-27T09:03:02.924Z,21.64
2019-02-27T09:05:32.814Z,21.54
2019-02-27T09:08:02.337Z,21.23
2019-02-27T09:10:31.863Z,22.32
2019-02-27T09:13:05.443Z,23.19
2019-02-27T09:15:32.633Z,23.38
2019-02-27T09:18:02.515Z,20.95
2019-02-27T09:20:32.102Z,20.61
2019-02-27T09:23:01.620Z,19.28
2019-02-27T09:25:31.212Z,21.12
2019-02-27T09:28:00.708Z,22.24
2019-02-27T09:30:30.338Z,22.10
2019-02-27T09:32:59.855Z,22.36
2019-02-27T09:35:32.542Z,23.68
2019-02-27T09:38:00.684Z,23.69
2019-02-27T09:40:30.858Z,25.49
2019-02-27T09:43:00.383Z,24.60
2019-02-27T09:45:35.789Z,25.05
2019-02-27T09:48:05.986Z,25.08
2019-02-27T09:50:47.582Z,23.85
2019-02-27T09:53:15.141Z,23.85
2019-02-27T09:55:44.732Z,22.87
2019-02-27T09:58:14.801Z,24.16
2019-02-27T10:00:51.054Z,22.77
2019-02-27T10:03:21.592Z,23.08
2019-02-27T10:05:51.256Z,20.00
2019-02-27T10:08:20.762Z,19.00
2019-02-27T10:10:50.282Z,18.22
2019-02-27T10:13:19.784Z,19.77
2019-02-27T10:15:49.294Z,22.08
2019-02-27T10:18:21.895Z,21.15
2019-02-27T10:20:50.053Z,19.94
2019-02-27T10:23:19.645Z,19.15
2019-02-27T10:25:49.954Z,16.97
2019-02-27T10:28:19.619Z,17.09
2019-02-27T10:30:49.968Z,18.52
2019-02-27T10:33:20.283Z,19.40
2019-02-27T10:35:49.827Z,18.42
2019-02-27T10:38:19.336Z,17.98
2019-02-27T10:40:48.859Z,19.68
2019-02-27T10:43:18.364Z,18.78
2019-02-27T10:45:49.288Z,19.27
2019-02-27T10:48:19.107Z,19.55
2019-02-27T10:50:49.862Z,21.40
2019-02-27T10:53:19.387Z,21.62
2019-02-27T10:55:49.920Z,22.49
2019-02-27T10:58:19.496Z,23.50
2019-02-27T11:00:50.236Z,24.15
2019-02-27T11:03:19.737Z,24.14
2019-02-27T11:05:52.430Z,24.52
2019-02-27T11:08:20.633Z,22.64
2019-02-27T11:10:50.146Z,23.95
2019-02-27T11:13:19.943Z,23.71
2019-02-27T11:15:49.455Z,23.57
2019-02-27T11:18:18.960Z,23.53
2019-02-27T11:20:48.478Z,24.60
2019-02-27T11:23:17.992Z,23.67
2019-02-27T11:25:47.516Z,23.55
2019-02-27T11:28:17.039Z,23.74
2019-02-27T11:30:46.610Z,24.97
2019-02-27T11:33:25.078Z,27.69
2019-02-27T11:35:47.465Z,25.64
2019-02-27T11:38:17.756Z,26.59
2019-02-27T11:40:47.277Z,25.59
2019-02-27T11:43:17.908Z,25.12
2019-02-27T11:45:47.428Z,25.93
2019-02-27T11:48:16.936Z,22.50
2019-02-27T11:50:46.441Z,21.42
2019-02-27T11:53:15.979Z,21.30
2019-02-27T11:55:47.381Z,21.58
2019-02-27T11:58:17.863Z,21.25
2019-02-27T12:00:47.358Z,21.41
2019-02-27T12:03:16.876Z,21.12
2019-02-27T12:05:46.442Z,21.14
2019-02-27T12:08:15.964Z,20.67
2019-02-27T12:10:45.459Z,22.68
2019-02-27T12:13:15.026Z,20.60
2019-02-27T12:15:44.645Z,20.93
2019-02-27T12:18:14.180Z,21.04
2019-02-27T12:20:43.696Z,24.83
2019-02-27T12:23:13.191Z,22.57
2019-02-27T12:25:42.740Z,21.44
2019-02-27T12:28:12.410Z,22.34
2019-02-27T12:30:41.901Z,21.07
2019-02-27T12:33:11.501Z,20.76
2019-02-27T12:35:44.158Z,21.25
2019-02-27T12:38:12.254Z,22.02
2019-02-27T12:40:41.756Z,25.25
2019-02-27T12:43:11.280Z,23.96
2019-02-27T12:45:40.789Z,25.07
2019-02-27T12:48:12.601Z,22.41
2019-02-27T12:50:42.212Z,23.02
2019-02-27T12:53:11.754Z,25.10
2019-02-27T12:55:41.255Z,23.80
2019-02-27T12:58:10.853Z,26.18
2019-02-27T13:00:42.560Z,28.34
2019-02-27T13:03:11.686Z,22.77
2019-02-27T13:05:41.207Z,21.12
2019-02-27T13:08:11.388Z,20.68
2019-02-27T13:10:40.960Z,20.46
2019-02-27T13:13:10.574Z,24.22
2019-02-27T13:15:41.766Z,22.93
2019-02-27T13:18:11.309Z,23.98
2019-02-27T13:20:42.973Z,22.30
2019-02-27T13:23:12.061Z,25.00
2019-02-27T13:25:41.585Z,25.81
2019-02-27T13:28:11.096Z,28.14
2019-02-27T13:30:41.707Z,20.90
2019-02-27T13:33:11.684Z,20.23
2019-02-27T13:35:41.218Z,20.55
2019-02-27T13:38:10.708Z,19.58
2019-02-27T13:40:40.223Z,20.83
2019-02-27T13:43:09.826Z,21.27
2019-02-27T13:45:39.412Z,19.65
2019-02-27T13:48:08.928Z,19.29
2019-02-27T13:50:38.427Z,19.50
2019-02-27T13:53:07.930Z,19.13
2019-02-27T13:55:37.500Z,19.89
2019-02-27T13:58:07.076Z,19.97
2019-02-27T14:00:38.340Z,19.46
2019-02-27T14:03:12.182Z,18.60
2019-02-27T14:05:39.078Z,18.06
2019-02-27T14:08:08.802Z,18.26
2019-02-27T14:10:38.490Z,18.68
2019-02-27T14:13:09.746Z,18.12
2019-02-27T14:15:39.363Z,18.04
2019-02-27T14:18:08.858Z,18.21
2019-02-27T14:20:38.372Z,18.44
2019-02-27T14:23:08.037Z,18.50
2019-02-27T14:25:37.553Z,18.30
2019-02-27T14:28:07.084Z,18.00
2019-02-27T14:30:46.732Z,18.31
2019-02-27T14:33:19.357Z,17.75
2019-02-27T14:35:47.900Z,17.53
2019-02-27T14:38:17.394Z,17.47
2019-02-27T14:40:46.878Z,17.35
2019-02-27T14:43:16.434Z,17.34
2019-02-27T14:45:45.935Z,17.56
2019-02-27T14:48:18.164Z,17.70
2019-02-27T14:50:46.693Z,17.69
2019-02-27T14:53:19.697Z,17.44
2019-02-27T14:55:48.311Z,17.21
2019-02-27T14:58:17.811Z,17.31
2019-02-27T15:00:47.362Z,17.25
2019-02-27T15:03:16.856Z,16.88
2019-02-27T15:05:47.043Z,16.94
2019-02-27T15:08:16.533Z,17.01
2019-02-27T15:10:46.078Z,16.85
2019-02-27T15:13:15.643Z,16.64
2019-02-27T15:15:45.193Z,16.45
2019-02-27T15:18:14.706Z,16.35
2019-02-27T15:20:44.233Z,15.95
2019-02-27T15:23:13.753Z,15.74
2019-02-27T15:25:43.484Z,15.49
2019-02-27T15:28:13.014Z,15.63
2019-02-27T15:30:46.340Z,15.69
2019-02-27T15:33:13.750Z,15.67
2019-02-27T15:35:43.345Z,15.62
2019-02-27T15:38:12.950Z,15.53
2019-02-27T15:40:42.424Z,15.73
2019-02-27T15:43:16.840Z,15.62
2019-02-27T15:45:48.061Z,15.37
2019-02-27T15:48:14.475Z,15.52
2019-02-27T15:50:44.004Z,15.22
2019-02-27T15:53:15.007Z,14.98
2019-02-27T15:55:44.755Z,14.80
2019-02-27T15:58:14.244Z,14.56
2019-02-27T16:00:43.809Z,14.42
2019-02-27T16:03:13.333Z,14.35
2019-02-27T16:05:42.845Z,14.43
2019-02-27T16:08:12.391Z,14.46
2019-02-27T16:10:43.791Z,14.46
2019-02-27T16:13:13.688Z,14.31
2019-02-27T16:15:44.699Z,14.25
2019-02-27T16:18:14.276Z,14.13
2019-02-27T16:20:43.844Z,13.88
2019-02-27T16:23:13.365Z,14.14
2019-02-27T16:25:42.886Z,14.17
2019-02-27T16:28:16.405Z,13.71
2019-02-27T16:30:43.617Z,13.73
2019-02-27T16:33:13.166Z,13.11
2019-02-27T16:35:43.072Z,13.04
2019-02-27T16:38:13.261Z,12.67
2019-02-27T16:40:43.649Z,12.33
2019-02-27T16:43:14.323Z,11.93
2019-02-27T16:45:44.136Z,12.07
2019-02-27T16:48:13.656Z,11.37
2019-02-27T16:50:43.158Z,10.86
2019-02-27T16:53:16.115Z,10.58
2019-02-27T16:55:43.896Z,10.17
2019-02-27T16:58:13.421Z,9.84
2019-02-27T17:00:43.006Z,9.53
2019-02-27T17:03:13.419Z,9.31
2019-02-27T17:05:43.909Z,9.17
2019-02-27T17:08:14.488Z,8.93
2019-02-27T17:10:43.997Z,8.71
2019-02-27T17:13:15.451Z,8.53
2019-02-27T17:15:44.703Z,8.34
2019-02-27T17:18:14.189Z,8.31
2019-02-27T17:20:46.509Z,8.71
2019-02-27T17:23:14.937Z,8.55
2019-02-27T17:25:44.449Z,8.73
2019-02-27T17:28:13.960Z,8.57
2019-02-27T17:30:43.448Z,7.93
2019-02-27T17:33:12.970Z,7.75
2019-02-27T17:35:42.461Z,7.78
2019-02-27T17:38:13.730Z,7.80
2019-02-27T17:40:43.181Z,7.87
2019-02-27T17:43:12.731Z,7.32
2019-02-27T17:45:44.262Z,7.00
2019-02-27T17:48:13.496Z,6.74
2019-02-27T17:50:43.004Z,6.55
2019-02-27T17:53:12.517Z,6.41
2019-02-27T17:55:42.597Z,6.23
2019-02-27T17:58:12.102Z,6.06
2019-02-27T18:00:52.174Z,5.93
2019-02-27T18:03:21.691Z,5.85
2019-02-27T18:05:51.182Z,5.73
2019-02-27T18:08:20.692Z,6.25
2019-02-27T18:10:50.202Z,6.21
2019-02-27T18:13:19.811Z,6.02
2019-02-27T18:15:49.296Z,5.86
2019-02-27T18:18:19.754Z,5.81
2019-02-27T18:20:49.308Z,5.72
2019-02-27T18:23:18.825Z,5.43
2019-02-27T18:25:48.345Z,5.13
2019-02-27T18:28:17.882Z,4.97
2019-02-27T18:30:52.865Z,4.91
2019-02-27T18:33:19.232Z,4.75
2019-02-27T18:35:48.807Z,4.67
2019-02-27T18:38:18.305Z,4.52
2019-02-27T18:40:47.791Z,4.44
2019-02-27T18:43:17.329Z,4.43
2019-02-27T18:45:48.238Z,4.47
2019-02-27T18:48:18.081Z,4.68
2019-02-27T18:50:47.592Z,4.41
2019-02-27T18:53:17.107Z,4.27
2019-02-27T18:55:46.632Z,4.23
2019-02-27T18:58:18.170Z,4.22
2019-02-27T19:00:47.412Z,4.14
2019-02-27T19:03:16.962Z,4.04
2019-02-27T19:05:46.465Z,4.00
2019-02-27T19:08:16.052Z,3.99
2019-02-27T19:10:46.181Z,4.03
2019-02-27T19:13:15.785Z,4.50
2019-02-27T19:15:46.337Z,4.11
2019-02-27T19:18:16.832Z,4.01
2019-02-27T19:20:47.618Z,3.89
2019-02-27T19:23:18.454Z,3.73
2019-02-27T19:25:48.135Z,4.04
2019-02-27T19:28:17.654Z,3.83
2019-02-27T19:30:47.391Z,3.70
2019-02-27T19:33:17.000Z,3.67
2019-02-27T19:35:46.564Z,3.61
2019-02-27T19:38:16.087Z,3.78
2019-02-27T19:40:45.656Z,3.78
2019-02-27T19:43:15.183Z,3.62
2019-02-27T19:45:44.698Z,3.54
2019-02-27T19:48:14.392Z,3.47
2019-02-27T19:50:46.288Z,3.49
2019-02-27T19:53:15.980Z,3.40
2019-02-27T19:55:45.501Z,3.33
2019-02-27T19:58:18.174Z,3.29
2019-02-27T20:00:48.155Z,3.14
2019-02-27T20:03:17.510Z,3.03
2019-02-27T20:05:50.659Z,3.09
2019-02-27T20:08:19.469Z,2.98
2019-02-27T20:10:49.720Z,2.90
2019-02-27T20:13:19.552Z,2.81
2019-02-27T20:15:50.048Z,2.72
2019-02-27T20:18:19.806Z,2.62
2019-02-27T20:20:49.354Z,2.58
2019-02-27T20:23:18.965Z,2.45
2019-02-27T20:25:48.442Z,2.41
2019-02-27T20:28:18.033Z,2.47
2019-02-27T20:30:47.589Z,2.43
2019-02-27T20:33:17.202Z,2.44
2019-02-27T20:35:46.693Z,2.42
2019-02-27T20:38:16.974Z,2.29
2019-02-27T20:40:46.547Z,2.40
2019-02-27T20:43:16.070Z,2.16
2019-02-27T20:45:46.033Z,2.16
2019-02-27T20:48:15.558Z,2.04
2019-02-27T20:50:51.987Z,1.98
2019-02-27T20:53:21.864Z,1.89
2019-02-27T20:55:51.366Z,1.88
2019-02-27T20:58:22.167Z,1.83
2019-02-27T21:00:51.820Z,1.78
2019-02-27T21:03:26.771Z,1.68
2019-02-27T21:05:52.683Z,1.65
2019-02-27T21:08:22.225Z,1.58
2019-02-27T21:10:55.287Z,1.54
2019-02-27T21:13:23.052Z,1.49
2019-02-27T21:15:52.987Z,1.77
2019-02-27T21:18:22.535Z,1.54
2019-02-27T21:20:52.017Z,1.47
2019-02-27T21:23:21.538Z,1.53
2019-02-27T21:25:51.117Z,1.32
2019-02-27T21:28:21.543Z,1.18
2019-02-27T21:30:52.325Z,1.17
2019-02-27T21:33:22.625Z,1.12
2019-02-27T21:35:52.170Z,1.07
2019-02-27T21:38:21.697Z,1.02
2019-02-27T21:40:51.177Z,1.31
2019-02-27T21:43:25.371Z,1.02
2019-02-27T21:45:51.904Z,0.93
2019-02-27T21:48:23.473Z,0.91
2019-02-27T21:50:52.645Z,0.85
2019-02-27T21:53:22.164Z,0.70
2019-02-27T21:55:52.176Z,0.72
2019-02-27T21:58:21.791Z,0.99
2019-02-27T22:00:51.276Z,0.99
2019-02-27T22:03:20.856Z,0.77
2019-02-27T22:05:53.037Z,0.65
2019-02-27T22:08:21.600Z,0.59
2019-02-27T22:10:53.680Z,0.55
2019-02-27T22:13:29.485Z,0.54
2019-02-27T22:15:56.600Z,0.51
2019-02-27T22:18:24.930Z,0.48
2019-02-27T22:20:59.414Z,0.59
2019-02-27T22:23:25.655Z,0.49
2019-02-27T22:25:55.141Z,0.45
2019-02-27T22:28:24.676Z,0.44
2019-02-27T22:30:54.174Z,0.48
2019-02-27T22:33:23.749Z,0.48
2019-02-27T22:35:53.268Z,0.49
2019-02-27T22:38:25.681Z,0.43
2019-02-27T22:40:54.009Z,0.35
2019-02-27T22:43:23.529Z,0.29
2019-02-27T22:45:53.021Z,0.22
2019-02-27T22:48:22.531Z,0.16
2019-02-27T22:50:52.044Z,0.09
2019-02-27T22:53:21.528Z,0.06
2019-02-27T22:55:51.294Z,-0.01
2019-02-27T22:58:20.787Z,0.08
2019-02-27T23:01:02.276Z,0.47
2019-02-27T23:03:45.169Z,0.14
2019-02-27T23:06:14.744Z,-0.01
2019-02-27T23:08:44.572Z,-0.08
2019-02-27T23:11:14.234Z,-0.11
2019-02-27T23:13:47.423Z,-0.18
2019-02-27T23:16:19.072Z,-0.21
2019-02-27T23:18:48.707Z,-0.11
2019-02-27T23:21:18.303Z,-0.23
2019-02-27T23:23:47.899Z,-0.17
2019-02-27T23:26:20.171Z,-0.27
2019-02-27T23:28:48.760Z,-0.35
2019-02-27T23:31:22.365Z,-0.13
2019-02-27T23:33:49.532Z,0.10
2019-02-27T23:36:22.015Z,-0.22
2019-02-27T23:38:50.333Z,-0.20
2019-02-27T23:41:22.905Z,-0.45
2019-02-27T23:43:51.176Z,-0.56
2019-02-27T23:46:20.760Z,-0.58
2019-02-27T23:48:50.240Z,-0.62
2019-02-27T23:51:19.783Z,-0.67
2019-02-27T23:53:49.274Z,-0.69
2019-02-27T23:56:20.293Z,-0.68
2019-02-27T23:58:50.233Z,-0.75
